Buoy 46930

sailwx.info

Track history (hours):
 
Tides and Currents Weather Stations Pressure Air Temp Water Temp Dewpoint Dewpoint Depression Visibility Wind Speed Wind Dir Waves Ship Positions

Drifting buoy 46930

Last reported at 2015-Sep-04 11:00 UTC. Time now 2015-Sep-04 16:41 UTC.
Position N 19°02' W 133°35'.

Date/timePositionNaut miles runAvg speedWind from/ knotsBaromVisibWave heightAir tempDewpointWater temp
2015-Sep-04 11:00N 19°02' W 133°35'2 0.3
2015-Sep-04 05:00N 19°04' W 133°35'1 0.3
2015-Sep-04 03:00N 19°03' W 133°34'7 0.7
2015-Sep-03 17:00N 19°03' W 133°27'2 0.8
2015-Sep-03 14:00N 19°04' W 133°24'2 0.8
2015-Sep-03 11:00N 19°03' W 133°22'5 0.7
2015-Sep-03 03:00N 19°04' W 133°16'6 0.5
2015-Sep-02 15:00N 19°05' W 133°10'1 0.7
2015-Sep-02 14:00N 19°05' W 133°10'2 0.7
2015-Sep-02 11:00N 19°03' W 133°09'3 0.8
2015-Sep-02 07:00N 19°00' W 133°07'1 0.4
2015-Sep-02 05:00N 18°60' W 133°06'6 1.2
2015-Sep-02 00:00N 18°57' W 133°01'8 0.3
2015-Sep-01 02:00N 18°52' W 132°55'1 0.3
2015-Aug-31 23:00N 18°51' W 132°55'8 1.0
2015-Aug-31 15:00N 18°43' W 132°55'3 1.0
2015-Aug-31 12:00N 18°40' W 132°54'6 1.2
2015-Aug-31 07:00N 18°36' W 132°49'1 0.7
2015-Aug-31 06:00N 18°36' W 132°49'1 1.4
2015-Aug-31 05:00N 18°35' W 132°48'3 0.4
2015-Aug-30 23:00N 18°35' W 132°45'1 0.2
2015-Aug-30 18:00N 18°36' W 132°46'2 0.6
2015-Aug-30 15:00N 18°35' W 132°45'1 1.1
2015-Aug-30 14:00N 18°34' W 132°46'3 0.4
2015-Aug-30 05:00N 18°31' W 132°46'1 0.7
2015-Aug-30 03:00N 18°29' W 132°46'1 0.4
2015-Aug-30 00:00N 18°28' W 132°46'0 0.4
2015-Aug-29 23:00N 18°28' W 132°46'3 0.2
2015-Aug-29 05:00N 18°26' W 132°43'1 1.2
2015-Aug-29 04:00N 18°24' W 132°43'7 0.4
2015-Aug-28 12:00N 18°19' W 132°48'3 0.4
2015-Aug-28 03:00N 18°16' W 132°49'0 0.2
2015-Aug-28 01:00N 18°16' W 132°49'0 0.4
2015-Aug-28 00:00N 18°16' W 132°49'1 1.3
2015-Aug-27 23:00N 18°16' W 132°51'1 0.3
2015-Aug-27 21:00N 18°15' W 132°50'1 0.2
2015-Aug-27 17:00N 18°15' W 132°51'1 0.7
2015-Aug-27 15:00N 18°13' W 132°51'0 0.4
2015-Aug-27 14:00N 18°13' W 132°51'2 0.4
2015-Aug-27 08:00N 18°11' W 132°53'2 0.4
2015-Aug-27 04:00N 18°09' W 132°53'2 0.4
2015-Aug-26 23:00N 18°08' W 132°55'5 0.6
2015-Aug-26 14:00N 18°03' W 132°54'4 0.5
2015-Aug-26 06:00N 17°59' W 132°55'0 0.0
2015-Aug-26 05:00N 17°59' W 132°55'1 0.4
2015-Aug-26 02:00N 17°58' W 132°55'0 0.0
2015-Aug-26 01:00N 17°58' W 132°55'1 0.5
2015-Aug-25 23:00N 17°57' W 132°56'4 0.6
2015-Aug-25 17:00N 17°55' W 132°58'7 1.1
2015-Aug-25 11:00N 17°48' W 132°59'  
Track history (hours):
 
Tides and Currents Weather Stations Pressure Air Temp Water Temp Dewpoint Dewpoint Depression Visibility Wind Speed Wind Dir Waves Ship Positions

Drifting buoy 46930

Last reported at 2015-Sep-04 11:00 UTC. Time now 2015-Sep-04 16:41 UTC.
Position N 19°02' W 133°35'.

Date/timePositionNaut miles runAvg speedWind from/ knotsBaromVisibWave heightAir tempDewpointWater temp
2015-Sep-04 11:00N 19°02' W 133°35'2 0.3
2015-Sep-04 05:00N 19°04' W 133°35'1 0.3
2015-Sep-04 03:00N 19°03' W 133°34'7 0.7
2015-Sep-03 17:00N 19°03' W 133°27'2 0.8
2015-Sep-03 14:00N 19°04' W 133°24'2 0.8
2015-Sep-03 11:00N 19°03' W 133°22'5 0.7
2015-Sep-03 03:00N 19°04' W 133°16'6 0.5
2015-Sep-02 15:00N 19°05' W 133°10'1 0.7
2015-Sep-02 14:00N 19°05' W 133°10'2 0.7
2015-Sep-02 11:00N 19°03' W 133°09'3 0.8
2015-Sep-02 07:00N 19°00' W 133°07'1 0.4
2015-Sep-02 05:00N 18°60' W 133°06'6 1.2
2015-Sep-02 00:00N 18°57' W 133°01'8 0.3
2015-Sep-01 02:00N 18°52' W 132°55'1 0.3
2015-Aug-31 23:00N 18°51' W 132°55'8 1.0
2015-Aug-31 15:00N 18°43' W 132°55'3 1.0
2015-Aug-31 12:00N 18°40' W 132°54'6 1.2
2015-Aug-31 07:00N 18°36' W 132°49'1 0.7
2015-Aug-31 06:00N 18°36' W 132°49'1 1.4
2015-Aug-31 05:00N 18°35' W 132°48'3 0.4
2015-Aug-30 23:00N 18°35' W 132°45'1 0.2
2015-Aug-30 18:00N 18°36' W 132°46'2 0.6
2015-Aug-30 15:00N 18°35' W 132°45'1 1.1
2015-Aug-30 14:00N 18°34' W 132°46'3 0.4
2015-Aug-30 05:00N 18°31' W 132°46'1 0.7
2015-Aug-30 03:00N 18°29' W 132°46'1 0.4
2015-Aug-30 00:00N 18°28' W 132°46'0 0.4
2015-Aug-29 23:00N 18°28' W 132°46'3 0.2
2015-Aug-29 05:00N 18°26' W 132°43'1 1.2
2015-Aug-29 04:00N 18°24' W 132°43'7 0.4
2015-Aug-28 12:00N 18°19' W 132°48'3 0.4
2015-Aug-28 03:00N 18°16' W 132°49'0 0.2
2015-Aug-28 01:00N 18°16' W 132°49'0 0.4
2015-Aug-28 00:00N 18°16' W 132°49'1 1.3
2015-Aug-27 23:00N 18°16' W 132°51'1 0.3
2015-Aug-27 21:00N 18°15' W 132°50'1 0.2
2015-Aug-27 17:00N 18°15' W 132°51'1 0.7
2015-Aug-27 15:00N 18°13' W 132°51'0 0.4
2015-Aug-27 14:00N 18°13' W 132°51'2 0.4
2015-Aug-27 08:00N 18°11' W 132°53'2 0.4
2015-Aug-27 04:00N 18°09' W 132°53'2 0.4
2015-Aug-26 23:00N 18°08' W 132°55'5 0.6
2015-Aug-26 14:00N 18°03' W 132°54'4 0.5
2015-Aug-26 06:00N 17°59' W 132°55'0 0.0
2015-Aug-26 05:00N 17°59' W 132°55'1 0.4
2015-Aug-26 02:00N 17°58' W 132°55'0 0.0
2015-Aug-26 01:00N 17°58' W 132°55'1 0.5
2015-Aug-25 23:00N 17°57' W 132°56'4 0.6
2015-Aug-25 17:00N 17°55' W 132°58'7 1.1
2015-Aug-25 11:00N 17°48' W 132°59'  

Dump ship's entire track history